Time;durP1;ratioP1;P1;durP2;ratioP2;P2;SDS_P1;SDS_P2;PMS_P1;PMS_P2;Temp;Humidity;BMP_temperature;BMP_pressure;BME280_temperature;BME280_humidity;BME280_pressure;Samples;Min_cycle;Max_cycle;Signal;HPM_P1;HPM_P2
2022/10/19 00:00:19;;;;;;;4.60;3.70;;;;;;;11.71;100.00;100351.70;100782;1339;25255;-34
2022/10/19 00:02:45;;;;;;;8.40;6.80;;;;;;;11.61;100.00;100347.23;100730;1339;25220;-37
2022/10/19 00:05:10;;;;;;;8.90;7.50;;;;;;;11.56;100.00;100349.42;100709;1339;22515;-37
2022/10/19 00:07:36;;;;;;;1.60;0.90;;;;;;;11.45;100.00;100352.92;99456;1339;1879478;-37
2022/10/19 00:10:03;;;;;;;9.40;8.10;;;;;;;11.38;100.00;100353.92;100704;1334;22922;-37
2022/10/19 00:12:29;;;;;;;7.30;5.90;;;;;;;11.30;100.00;100352.70;100722;1339;23122;-36
2022/10/19 00:14:55;;;;;;;6.90;6.30;;;;;;;11.27;100.00;100358.50;100730;1331;23062;-34
2022/10/19 00:17:20;;;;;;;8.70;7.70;;;;;;;11.22;100.00;100369.02;100711;1339;22758;-34
2022/10/19 00:19:47;;;;;;;9.50;7.00;;;;;;;11.20;100.00;100370.33;100766;1339;24497;-37
2022/10/19 00:22:13;;;;;;;6.60;5.70;;;;;;;11.18;100.00;100374.84;100781;1331;22502;-37
2022/10/19 00:24:39;;;;;;;13.00;6.70;;;;;;;11.15;100.00;100376.41;100802;1339;22836;-36
2022/10/19 00:27:05;;;;;;;12.00;6.60;;;;;;;11.15;100.00;100375.79;100708;1339;23221;-36
2022/10/19 00:29:30;;;;;;;10.90;8.90;;;;;;;11.18;100.00;100378.74;100772;1331;23106;-34
2022/10/19 00:31:56;;;;;;;16.10;8.60;;;;;;;11.20;100.00;100380.23;100775;1339;22508;-40
2022/10/19 00:34:21;;;;;;;21.40;8.90;;;;;;;11.20;100.00;100384.64;100741;1339;22889;-35
2022/10/19 00:36:47;;;;;;;12.40;9.40;;;;;;;11.19;100.00;100389.59;100662;1339;23333;-36
2022/10/19 00:39:17;;;;;;;7.20;5.60;;;;;;;11.16;100.00;100388.84;100821;1338;22868;-35
2022/10/19 00:41:44;;;;;;;6.30;5.20;;;;;;;11.17;100.00;100394.81;100768;1331;22844;-37
2022/10/19 00:44:27;;;;;;;12.70;7.30;;;;;;;11.18;100.00;100401.16;100698;1339;23142;-37
2022/10/19 00:46:53;;;;;;;9.20;6.40;;;;;;;11.21;100.00;100401.39;100688;1323;22513;-36
2022/10/19 00:49:21;;;;;;;14.10;10.00;;;;;;;11.23;100.00;100393.67;100721;1339;22747;-37
2022/10/19 00:51:48;;;;;;;9.50;8.30;;;;;;;11.19;100.00;100392.05;100761;1339;24367;-34
2022/10/19 00:54:14;;;;;;;8.90;6.80;;;;;;;11.18;100.00;100394.00;100765;1339;23551;-35
2022/10/19 00:56:40;;;;;;;8.80;5.90;;;;;;;11.16;100.00;100400.86;100829;1336;22761;-37
2022/10/19 00:59:06;;;;;;;11.60;10.30;;;;;;;11.13;100.00;100405.48;100822;1339;22748;-35
2022/10/19 01:01:32;;;;;;;14.10;10.70;;;;;;;11.19;100.00;100412.01;100780;1339;23223;-36
2022/10/19 01:03:57;;;;;;;23.90;8.90;;;;;;;11.20;100.00;100405.32;100745;1331;23100;-33
2022/10/19 01:06:23;;;;;;;9.80;7.00;;;;;;;11.17;100.00;100406.11;100712;1339;22745;-37
2022/10/19 01:08:49;;;;;;;15.90;10.20;;;;;;;11.15;100.00;100403.36;100718;1339;22925;-34
2022/10/19 01:11:18;;;;;;;16.40;10.10;;;;;;;11.05;100.00;100398.65;100693;1331;24491;-33
2022/10/19 01:13:43;;;;;;;15.70;12.20;;;;;;;10.93;100.00;100390.05;100701;1339;23062;-35
2022/10/19 01:16:14;;;;;;;12.60;10.10;;;;;;;10.82;100.00;100387.95;100752;1331;22745;-35
2022/10/19 01:18:44;;;;;;;20.70;11.20;;;;;;;10.74;100.00;100386.30;100759;1339;23086;-35
2022/10/19 01:21:16;;;;;;;10.40;8.90;;;;;;;10.68;100.00;100390.39;100784;1339;23223;-32
2022/10/19 01:23:43;;;;;;;13.80;10.40;;;;;;;10.68;100.00;100389.34;100753;1339;25567;-38
2022/10/19 01:26:20;;;;;;;16.20;9.00;;;;;;;10.61;100.00;100390.14;100830;1331;22775;-34
2022/10/19 01:28:54;;;;;;;10.80;9.00;;;;;;;10.52;100.00;100383.15;100807;1339;22768;-36
2022/10/19 01:31:26;;;;;;;12.90;7.80;;;;;;;10.43;100.00;100379.78;100759;1339;26621;-36
2022/10/19 01:33:53;;;;;;;12.70;8.70;;;;;;;10.40;100.00;100375.45;100754;1339;22526;-33
2022/10/19 01:36:21;;;;;;;15.10;8.80;;;;;;;10.37;100.00;100375.48;100812;1334;24383;-35
2022/10/19 01:38:53;;;;;;;11.40;7.80;;;;;;;10.33;100.00;100376.12;100700;1339;23187;-36
2022/10/19 01:41:26;;;;;;;10.60;7.50;;;;;;;10.29;100.00;100370.24;100747;1339;22572;-33
2022/10/19 01:43:57;;;;;;;17.80;10.10;;;;;;;10.27;100.00;100366.19;100783;1339;24369;-36
2022/10/19 01:46:30;;;;;;;14.50;9.50;;;;;;;10.32;100.00;100369.95;100725;1331;24465;-34
2022/10/19 01:49:00;;;;;;;10.10;7.90;;;;;;;10.31;100.00;100372.89;100827;1339;22618;-36
2022/10/19 01:51:28;;;;;;;9.90;6.80;;;;;;;10.29;100.00;100373.13;100729;1339;24471;-35
2022/10/19 01:53:56;;;;;;;9.50;6.90;;;;;;;10.29;100.00;100372.77;100758;1340;24334;-36
2022/10/19 01:56:23;;;;;;;7.10;4.70;;;;;;;10.32;100.00;100371.61;100757;1331;22894;-35
2022/10/19 01:58:49;;;;;;;6.40;5.40;;;;;;;10.32;100.00;100373.30;100771;1339;22515;-37
2022/10/19 02:01:15;;;;;;;12.10;6.90;;;;;;;10.32;100.00;100370.30;100762;1339;22735;-37
2022/10/19 02:03:42;;;;;;;9.00;6.30;;;;;;;10.34;100.00;100371.52;100713;1339;24305;-35
2022/10/19 02:06:08;;;;;;;9.00;7.10;;;;;;;10.24;100.00;100371.64;100759;1339;22525;-37
2022/10/19 02:08:37;;;;;;;13.20;8.40;;;;;;;10.20;100.00;100373.35;100825;1339;24378;-35
2022/10/19 02:11:03;;;;;;;7.80;6.10;;;;;;;10.18;100.00;100378.77;100806;1339;24372;-37
2022/10/19 02:13:30;;;;;;;15.60;10.70;;;;;;;10.14;100.00;100378.16;100769;1339;23096;-36
2022/10/19 02:15:55;;;;;;;20.20;10.20;;;;;;;10.08;100.00;100377.63;100750;1339;22883;-35
2022/10/19 02:18:24;;;;;;;13.30;7.30;;;;;;;10.04;100.00;100378.00;100760;1338;24552;-34
2022/10/19 02:20:50;;;;;;;14.60;8.50;;;;;;;10.08;100.00;100376.73;100768;1329;23014;-34
2022/10/19 02:23:16;;;;;;;14.70;5.50;;;;;;;10.04;100.00;100376.77;100812;1339;24356;-34
2022/10/19 02:25:42;;;;;;;16.10;8.90;;;;;;;9.96;100.00;100373.50;100734;1316;23948;-35
2022/10/19 02:28:07;;;;;;;18.50;7.80;;;;;;;9.90;100.00;100373.48;100736;1339;22734;-34
2022/10/19 02:30:33;;;;;;;15.30;10.20;;;;;;;9.88;100.00;100371.27;100793;1339;24715;-34
2022/10/19 02:32:58;;;;;;;16.40;10.20;;;;;;;9.80;100.00;100370.63;100737;1331;24378;-37
2022/10/19 02:35:24;;;;;;;11.70;7.40;;;;;;;9.75;100.00;100368.30;100771;1339;24316;-33
2022/10/19 02:37:49;;;;;;;20.70;12.40;;;;;;;9.66;100.00;100364.68;100825;1331;24466;-35
2022/10/19 02:40:15;;;;;;;23.20;10.10;;;;;;;9.59;100.00;100365.73;100693;1339;24475;-33
2022/10/19 02:42:44;;;;;;;16.20;10.20;;;;;;;9.56;100.00;100358.77;100793;1331;22793;-33
2022/10/19 02:45:14;;;;;;;18.70;11.40;;;;;;;9.53;100.00;100358.41;100803;1339;24372;-35
2022/10/19 02:47:43;;;;;;;13.60;8.90;;;;;;;9.47;100.00;100353.98;100814;1339;24371;-33
2022/10/19 02:50:09;;;;;;;17.70;10.00;;;;;;;9.42;100.00;100353.33;100781;1339;22647;-35
2022/10/19 02:52:36;;;;;;;19.00;9.80;;;;;;;9.36;100.00;100357.71;100793;1339;24486;-33
2022/10/19 02:55:02;;;;;;;32.40;11.40;;;;;;;9.36;100.00;100360.16;100769;1339;22903;-33
2022/10/19 02:57:28;;;;;;;22.30;10.40;;;;;;;9.38;100.00;100363.11;100797;1339;22507;-33
2022/10/19 02:59:53;;;;;;;40.00;12.60;;;;;;;9.33;100.00;100366.98;100712;1339;22770;-33
2022/10/19 03:02:19;;;;;;;35.60;10.20;;;;;;;9.27;100.00;100365.13;100786;1339;24379;-36
2022/10/19 03:04:47;;;;;;;27.10;11.80;;;;;;;9.24;100.00;100366.35;100775;1331;23195;-33
2022/10/19 03:07:15;;;;;;;18.30;8.50;;;;;;;9.27;100.00;100375.60;100744;1339;22868;-34
2022/10/19 03:09:41;;;;;;;18.30;11.30;;;;;;;9.32;100.00;100382.02;100772;1331;23232;-35
2022/10/19 03:12:06;;;;;;;29.20;10.60;;;;;;;9.33;100.00;100387.50;100764;1331;22760;-33
2022/10/19 03:14:32;;;;;;;21.80;11.70;;;;;;;9.37;100.00;100396.42;100849;1331;23223;-33
2022/10/19 03:16:58;;;;;;;17.20;8.20;;;;;;;9.35;100.00;100396.92;100744;1339;24587;-35
2022/10/19 03:19:23;;;;;;;24.80;14.50;;;;;;;9.34;100.00;100394.17;100744;1339;23066;-36
2022/10/19 03:21:49;;;;;;;27.80;12.50;;;;;;;9.36;100.00;100392.60;100793;1339;22757;-33
2022/10/19 03:24:15;;;;;;;13.60;8.10;;;;;;;9.34;100.00;100398.09;100700;1337;24484;-40
2022/10/19 03:26:41;;;;;;;13.90;9.00;;;;;;;9.36;100.00;100402.02;100860;1331;24302;-36
2022/10/19 03:29:07;;;;;;;17.70;8.80;;;;;;;9.31;100.00;100399.19;100712;1331;22758;-34
2022/10/19 03:31:33;;;;;;;37.40;11.30;;;;;;;9.31;100.00;100396.86;100674;1332;23086;-36
2022/10/19 03:33:58;;;;;;;16.40;10.00;;;;;;;9.30;100.00;100392.99;100693;1339;24409;-36
2022/10/19 03:36:26;;;;;;;28.00;10.30;;;;;;;9.30;100.00;100395.91;100673;1339;24923;-34
2022/10/19 03:38:53;;;;;;;25.20;8.10;;;;;;;9.28;100.00;100397.38;100694;1331;22984;-36
2022/10/19 03:41:19;;;;;;;40.30;14.30;;;;;;;9.30;100.00;100396.38;100835;1339;24359;-36
2022/10/19 03:43:45;;;;;;;21.70;12.10;;;;;;;9.35;100.00;100395.86;100843;1331;22973;-35
2022/10/19 03:46:10;;;;;;;41.20;13.80;;;;;;;9.31;100.00;100396.48;100795;1331;24264;-36
2022/10/19 03:48:36;;;;;;;34.00;11.00;;;;;;;9.35;100.00;100392.84;100777;1339;22497;-37
2022/10/19 03:51:05;;;;;;;32.00;13.40;;;;;;;9.42;100.00;100396.77;100726;1339;22748;-36
2022/10/19 03:53:30;;;;;;;19.50;8.70;;;;;;;9.44;100.00;100395.66;100782;1339;25430;-36
2022/10/19 03:56:00;;;;;;;13.20;9.30;;;;;;;9.51;100.00;100393.60;100710;1339;23071;-36
2022/10/19 03:58:26;;;;;;;20.00;8.90;;;;;;;9.49;100.00;100387.60;100771;1339;25228;-37
2022/10/19 04:00:53;;;;;;;17.00;10.40;;;;;;;9.56;100.00;100391.52;100807;1339;22747;-34
2022/10/19 04:03:19;;;;;;;27.20;7.50;;;;;;;9.50;100.00;100398.34;100763;1339;24469;-36
2022/10/19 04:05:44;;;;;;;19.80;12.20;;;;;;;9.55;100.00;100395.72;100802;1332;24369;-36
2022/10/19 04:08:10;;;;;;;28.20;10.30;;;;;;;9.51;100.00;100398.66;100762;1331;23211;-34
2022/10/19 04:10:36;;;;;;;15.50;7.60;;;;;;;9.56;100.00;100396.33;100712;1337;22744;-34
2022/10/19 04:13:01;;;;;;;16.00;9.00;;;;;;;9.60;100.00;100398.98;100780;1339;24283;-37
2022/10/19 04:15:27;;;;;;;15.70;9.90;;;;;;;9.57;100.00;100395.83;100808;1339;23021;-36
2022/10/19 04:17:52;;;;;;;29.40;10.30;;;;;;;9.56;100.00;100392.04;100724;1330;23792;-36
2022/10/19 04:20:18;;;;;;;27.60;9.90;;;;;;;9.54;100.00;100389.15;100730;1342;22935;-34
2022/10/19 04:22:43;;;;;;;18.50;9.70;;;;;;;9.57;100.00;100381.67;100755;1338;24449;-34
2022/10/19 04:25:10;;;;;;;12.40;7.00;;;;;;;9.56;100.00;100378.36;100779;1339;25529;-36
2022/10/19 04:27:36;;;;;;;19.20;7.20;;;;;;;9.56;100.00;100372.90;100718;1339;24314;-36
2022/10/19 04:30:01;;;;;;;19.10;11.00;;;;;;;9.49;100.00;100371.31;100763;1338;23103;-36
2022/10/19 04:32:27;;;;;;;24.20;9.70;;;;;;;9.45;100.00;100372.98;100876;1339;22558;-34
2022/10/19 04:34:52;;;;;;;18.30;11.00;;;;;;;9.41;100.00;100375.98;100787;1331;22748;-36
2022/10/19 04:37:18;;;;;;;23.60;11.10;;;;;;;9.38;100.00;100380.33;100791;1323;22751;-38
2022/10/19 04:39:43;;;;;;;16.80;7.10;;;;;;;9.38;100.00;100374.27;100714;1339;22517;-33
2022/10/19 04:42:09;;;;;;;35.30;15.00;;;;;;;9.40;100.00;100372.91;100732;1339;25362;-34
2022/10/19 04:44:34;;;;;;;29.00;12.40;;;;;;;9.36;100.00;100370.07;100737;1339;22502;-34
2022/10/19 04:47:00;;;;;;;27.40;12.30;;;;;;;9.36;100.00;100371.11;100698;1337;22618;-36
2022/10/19 04:49:26;;;;;;;30.40;13.80;;;;;;;9.34;100.00;100374.54;100797;1339;24359;-36
2022/10/19 04:51:51;;;;;;;12.30;7.80;;;;;;;9.34;100.00;100374.35;100694;1339;23244;-33
2022/10/19 04:54:17;;;;;;;15.50;7.20;;;;;;;9.34;100.00;100372.87;100801;1339;23197;-36
2022/10/19 04:56:43;;;;;;;27.80;14.10;;;;;;;9.39;100.00;100371.90;100810;1339;22597;-34
2022/10/19 04:59:09;;;;;;;13.40;8.60;;;;;;;9.36;100.00;100369.34;100685;1338;22756;-36
2022/10/19 05:01:34;;;;;;;22.40;12.80;;;;;;;9.39;100.00;100372.00;100717;1339;22604;-34
2022/10/19 05:04:00;;;;;;;18.80;10.10;;;;;;;9.38;100.00;100373.75;100805;1331;24945;-35
2022/10/19 05:06:26;;;;;;;20.30;11.50;;;;;;;9.37;100.00;100371.56;100756;1331;23053;-32
2022/10/19 05:08:52;;;;;;;29.40;14.00;;;;;;;9.31;100.00;100373.20;100773;1339;23242;-35
2022/10/19 05:11:18;;;;;;;30.50;14.10;;;;;;;9.30;100.00;100373.91;100805;1339;22796;-33
2022/10/19 05:13:44;;;;;;;23.20;9.60;;;;;;;9.23;100.00;100371.09;100884;1332;23106;-34
2022/10/19 05:16:13;;;;;;;17.10;12.60;;;;;;;9.30;100.00;100369.46;100736;1339;22875;-33
2022/10/19 05:18:38;;;;;;;13.50;8.30;;;;;;;9.27;100.00;100371.17;100739;1338;22748;-35
2022/10/19 05:21:06;;;;;;;17.40;10.70;;;;;;;9.30;100.00;100364.82;100700;1331;22881;-33
2022/10/19 05:23:32;;;;;;;22.30;10.70;;;;;;;9.32;100.00;100365.48;100750;1338;23111;-33
2022/10/19 05:26:02;;;;;;;28.40;11.80;;;;;;;9.28;100.00;100362.33;100535;1339;25356;-34
2022/10/19 05:28:27;;;;;;;20.90;9.00;;;;;;;9.29;100.00;100361.99;100744;1339;22872;-33
2022/10/19 05:30:53;;;;;;;18.50;12.40;;;;;;;9.30;100.00;100360.65;100776;1331;22712;-36
2022/10/19 05:33:18;;;;;;;19.80;10.10;;;;;;;9.32;100.00;100360.77;100684;1337;23110;-36
2022/10/19 05:35:44;;;;;;;19.80;9.40;;;;;;;9.31;100.00;100362.56;100706;1339;22760;-36
2022/10/19 05:38:09;;;;;;;23.50;11.10;;;;;;;9.32;100.00;100367.19;100692;1339;22874;-34
2022/10/19 05:40:35;;;;;;;4.30;3.90;;;;;;;9.34;100.00;100369.91;100615;1333;23020;-36
2022/10/19 05:43:01;;;;;;;22.90;12.10;;;;;;;9.38;100.00;100369.18;100768;1339;24464;-35
2022/10/19 05:45:26;;;;;;;26.20;14.00;;;;;;;9.39;100.00;100367.20;100811;1339;23118;-33
2022/10/19 05:47:52;;;;;;;8.00;4.20;;;;;;;9.40;100.00;100369.29;100779;1339;22511;-33
2022/10/19 05:50:17;;;;;;;14.20;8.20;;;;;;;9.39;100.00;100369.95;100715;1339;22519;-36
2022/10/19 05:52:44;;;;;;;19.70;9.60;;;;;;;9.42;100.00;100371.43;100703;1331;25061;-33
2022/10/19 05:55:09;;;;;;;18.40;12.50;;;;;;;9.52;100.00;100368.36;100571;1339;22505;-33
2022/10/19 05:57:35;;;;;;;14.80;9.90;;;;;;;9.53;100.00;100361.93;100679;1334;23179;-36
2022/10/19 06:00:02;;;;;;;18.80;12.20;;;;;;;9.55;100.00;100355.27;100728;1335;24874;-34
2022/10/19 06:02:28;;;;;;;33.00;7.80;;;;;;;9.59;100.00;100354.46;100725;1334;23138;-34
2022/10/19 06:04:54;;;;;;;18.10;4.40;;;;;;;9.64;100.00;100355.80;100795;1331;23226;-37
2022/10/19 06:07:20;;;;;;;25.40;8.30;;;;;;;9.66;100.00;100346.02;100793;1339;22747;-36
2022/10/19 06:09:46;;;;;;;15.30;7.40;;;;;;;9.71;100.00;100343.55;100711;1339;22526;-37
2022/10/19 06:12:12;;;;;;;14.70;8.10;;;;;;;9.74;100.00;100339.98;100685;1325;23017;-33
2022/10/19 06:14:37;;;;;;;16.00;9.70;;;;;;;9.63;100.00;100336.17;100779;1339;22683;-34
2022/10/19 06:17:03;;;;;;;56.40;8.30;;;;;;;9.63;100.00;100339.23;100769;1339;24814;-34
2022/10/19 06:19:28;;;;;;;21.60;11.70;;;;;;;9.65;100.00;100333.10;100803;1331;22747;-34
2022/10/19 06:21:54;;;;;;;15.40;8.90;;;;;;;9.61;100.00;100330.36;100776;1334;22991;-34
2022/10/19 06:24:19;;;;;;;12.00;5.90;;;;;;;9.68;100.00;100331.19;100774;1331;23228;-34
2022/10/19 06:26:45;;;;;;;26.70;11.20;;;;;;;9.68;100.00;100322.08;100725;1339;22782;-33
2022/10/19 06:29:10;;;;;;;18.70;9.60;;;;;;;9.58;100.00;100319.39;100746;1339;22744;-35
2022/10/19 06:31:37;;;;;;;15.10;11.20;;;;;;;9.56;100.00;100321.90;100748;1331;24288;-34
2022/10/19 06:34:03;;;;;;;16.20;12.30;;;;;;;9.58;100.00;100323.67;100676;1326;24386;-37
2022/10/19 06:36:29;;;;;;;16.20;7.40;;;;;;;9.60;100.00;100326.90;100778;1339;22747;-39
2022/10/19 06:38:55;;;;;;;23.10;8.50;;;;;;;9.60;100.00;100329.38;100764;1339;24249;-34
2022/10/19 06:41:21;;;;;;;11.00;6.60;;;;;;;9.65;100.00;100328.07;100792;1339;22733;-37
2022/10/19 06:43:49;;;;;;;14.20;9.40;;;;;;;9.66;100.00;100324.06;100677;1324;23119;-37
2022/10/19 06:46:19;;;;;;;23.60;4.80;;;;;;;9.72;100.00;100312.16;100703;1334;22755;-35
2022/10/19 06:48:49;;;;;;;15.90;5.20;;;;;;;9.83;100.00;100301.14;100757;1331;23173;-35
2022/10/19 06:51:14;;;;;;;11.60;9.00;;;;;;;9.83;100.00;100292.61;100816;1339;24472;-39
2022/10/19 06:53:40;;;;;;;20.10;7.30;;;;;;;9.82;100.00;100290.24;100788;1339;22512;-33
2022/10/19 06:56:06;;;;;;;4.60;3.00;;;;;;;9.80;100.00;100293.89;100729;1331;24401;-33
2022/10/19 06:58:35;;;;;;;8.20;5.80;;;;;;;9.91;100.00;100292.38;100837;1331;23122;-35
2022/10/19 07:01:01;;;;;;;17.80;6.80;;;;;;;9.98;100.00;100266.70;100703;1332;23216;-34
2022/10/19 07:03:27;;;;;;;14.00;7.60;;;;;;;10.00;100.00;100262.38;100764;1331;23249;-36
2022/10/19 07:05:53;;;;;;;15.30;8.30;;;;;;;9.98;100.00;100270.28;100784;1339;23346;-33
2022/10/19 07:08:19;;;;;;;19.80;8.00;;;;;;;10.00;100.00;100267.56;100739;1339;24450;-36
2022/10/19 07:10:49;;;;;;;5.40;4.40;;;;;;;10.02;100.00;100265.35;100816;1331;22977;-33
2022/10/19 07:13:14;;;;;;;11.50;6.20;;;;;;;10.12;100.00;100251.70;100735;1331;23017;-33
2022/10/19 07:15:40;;;;;;;10.60;3.90;;;;;;;10.08;100.00;100241.94;100757;1339;22894;-33
2022/10/19 07:18:05;;;;;;;12.70;6.90;;;;;;;10.13;100.00;100244.04;100759;1331;23087;-38
2022/10/19 07:20:31;;;;;;;10.70;6.10;;;;;;;10.14;100.00;100246.66;100669;1331;24484;-33
2022/10/19 07:22:56;;;;;;;6.30;4.80;;;;;;;10.14;100.00;100249.10;100857;1331;22918;-33
2022/10/19 07:25:22;;;;;;;7.40;5.60;;;;;;;10.21;100.00;100236.17;100662;1339;22502;-33
2022/10/19 07:27:47;;;;;;;8.70;5.80;;;;;;;10.17;100.00;100230.78;100799;1339;26508;-36
2022/10/19 07:30:13;;;;;;;2.90;2.10;;;;;;;10.15;100.00;100223.93;100811;1331;25547;-32
2022/10/19 07:32:38;;;;;;;5.40;3.10;;;;;;;10.18;100.00;100221.48;100780;1331;22751;-36
2022/10/19 07:35:05;;;;;;;16.20;3.90;;;;;;;10.20;100.00;100220.13;100724;1331;22894;-33
2022/10/19 07:37:30;;;;;;;13.40;5.80;;;;;;;10.15;100.00;100219.10;100746;1339;22734;-33
2022/10/19 07:39:56;;;;;;;9.90;3.50;;;;;;;10.13;100.00;100225.95;100817;1332;24290;-33
2022/10/19 07:42:21;;;;;;;4.70;3.80;;;;;;;10.19;100.00;100226.37;100776;1339;22847;-36
2022/10/19 07:44:47;;;;;;;10.10;4.60;;;;;;;10.19;100.00;100219.19;100800;1332;24371;-34
2022/10/19 07:47:12;;;;;;;3.70;3.30;;;;;;;10.17;100.00;100217.63;100801;1331;23578;-36
2022/10/19 07:49:38;;;;;;;6.60;4.00;;;;;;;10.26;100.00;100210.70;100792;1339;24388;-36
2022/10/19 07:52:04;;;;;;;8.50;4.60;;;;;;;10.18;100.00;100207.93;100838;1338;22890;-37
2022/10/19 07:54:30;;;;;;;10.70;5.80;;;;;;;10.20;100.00;100220.52;100764;1339;24478;-37
2022/10/19 07:56:55;;;;;;;7.40;3.40;;;;;;;10.22;100.00;100221.33;100831;1339;22996;-34
2022/10/19 07:59:21;;;;;;;9.30;5.00;;;;;;;10.24;100.00;100217.06;100731;1339;24266;-34
2022/10/19 08:01:47;;;;;;;4.10;2.30;;;;;;;10.30;100.00;100207.23;100676;1339;22577;-36
2022/10/19 08:04:13;;;;;;;11.60;2.40;;;;;;;10.33;100.00;100200.58;100746;1339;23241;-36
2022/10/19 08:06:38;;;;;;;2.90;2.20;;;;;;;10.36;100.00;100197.80;100274;1339;767460;-33
2022/10/19 08:09:04;;;;;;;2.50;1.70;;;;;;;10.45;100.00;100200.30;100766;1339;24286;-37
2022/10/19 08:11:32;;;;;;;5.70;3.60;;;;;;;10.53;100.00;100195.88;100760;1337;25415;-35
2022/10/19 08:13:58;;;;;;;4.70;2.80;;;;;;;10.59;100.00;100194.05;100717;1339;24432;-37
2022/10/19 08:16:26;;;;;;;9.40;2.70;;;;;;;10.49;100.00;100187.70;100644;1334;22885;-33
2022/10/19 08:18:54;;;;;;;2.70;1.20;;;;;;;10.46;100.00;100193.80;100801;1331;22745;-32
2022/10/19 08:21:20;;;;;;;4.10;1.40;;;;;;;10.41;100.00;100189.42;100694;1339;22517;-32
2022/10/19 08:23:45;;;;;;;5.50;3.20;;;;;;;10.43;100.00;100191.16;100782;1332;23239;-32
2022/10/19 08:26:11;;;;;;;9.20;2.20;;;;;;;10.60;100.00;100188.95;100728;1326;22508;-33
2022/10/19 08:28:38;;;;;;;4.70;1.40;;;;;;;10.86;100.00;100183.63;100798;1339;22721;-34
2022/10/19 08:31:08;;;;;;;1.90;1.20;;;;;;;10.89;100.00;100187.79;100790;1339;24391;-35
2022/10/19 08:33:34;;;;;;;1.30;1.10;;;;;;;10.94;100.00;100183.94;100641;1339;24589;-35
2022/10/19 08:35:59;;;;;;;3.80;1.80;;;;;;;10.99;100.00;100186.02;100788;1339;23069;-37
2022/10/19 08:38:25;;;;;;;4.70;1.30;;;;;;;10.84;100.00;100184.41;100783;1328;22875;-33
2022/10/19 08:40:50;;;;;;;4.40;1.70;;;;;;;10.90;100.00;100182.77;100730;1331;24327;-33
2022/10/19 08:43:19;;;;;;;;;;;;;;;10.77;100.00;100181.31;100823;1339;22722;-33
2022/10/19 08:45:49;;;;;;;5.10;1.50;;;;;;;10.85;100.00;100180.17;100822;1339;23274;-34
2022/10/19 08:48:26;;;;;;;1.00;0.70;;;;;;;10.94;100.00;100186.59;100700;1324;22971;-37
2022/10/19 08:50:52;;;;;;;2.10;1.30;;;;;;;10.92;100.00;100183.44;100525;1339;23224;-35
2022/10/19 08:53:18;;;;;;;7.20;1.40;;;;;;;11.02;100.00;100178.30;100771;1338;22745;-36
2022/10/19 08:55:43;;;;;;;2.70;1.30;;;;;;;11.08;100.00;100179.09;100677;1339;22873;-37
2022/10/19 08:58:19;;;;;;;3.00;1.40;;;;;;;11.15;100.00;100173.23;100776;1324;22725;-36
2022/10/19 09:00:50;;;;;;;1.70;1.10;;;;;;;11.07;100.00;100173.95;100721;1339;25550;-37
2022/10/19 09:03:22;;;;;;;2.70;0.90;;;;;;;11.13;100.00;100156.39;100580;1339;25689;-39
2022/10/19 09:05:52;;;;;;;6.20;1.30;;;;;;;11.05;100.00;100154.35;100637;1339;22797;-33
2022/10/19 09:08:18;;;;;;;7.30;0.90;;;;;;;11.11;100.00;100161.02;100851;1331;22508;-35
2022/10/19 09:10:45;;;;;;;6.10;1.20;;;;;;;11.38;100.00;100162.95;100782;1331;22891;-34
2022/10/19 09:13:19;;;;;;;10.00;1.00;;;;;;;11.81;100.00;100165.39;100784;1331;22755;-35
2022/10/19 09:15:46;;;;;;;1.70;0.60;;;;;;;12.08;99.53;100164.90;100745;1339;25359;-38
2022/10/19 09:18:18;;;;;;;6.40;0.80;;;;;;;12.12;98.79;100161.55;100764;1331;23300;-37
2022/10/19 09:20:45;;;;;;;3.30;1.00;;;;;;;12.16;97.56;100161.06;100845;1338;23706;-35
2022/10/19 09:23:18;;;;;;;0.40;0.40;;;;;;;12.17;96.07;100161.15;100787;1331;22838;-35
2022/10/19 09:25:44;;;;;;;1.10;0.50;;;;;;;12.19;96.26;100168.81;100704;1339;22911;-35
2022/10/19 09:28:13;;;;;;;6.60;1.20;;;;;;;12.19;93.70;100161.66;100809;1332;22713;-38
2022/10/19 09:30:40;;;;;;;2.60;1.00;;;;;;;12.18;93.94;100166.47;100747;1321;22515;-35
2022/10/19 09:33:09;;;;;;;1.70;0.90;;;;;;;12.14;95.16;100165.44;100813;1339;24866;-34
2022/10/19 09:35:37;;;;;;;3.80;0.70;;;;;;;12.27;94.44;100169.23;100796;1339;22754;-34
2022/10/19 09:38:04;;;;;;;13.20;1.00;;;;;;;12.23;92.90;100171.92;100716;1339;23130;-34
2022/10/19 09:40:29;;;;;;;5.00;1.10;;;;;;;12.23;92.40;100172.05;100814;1339;24262;-34
2022/10/19 09:42:56;;;;;;;1.20;0.60;;;;;;;12.15;93.66;100173.61;100821;1325;22893;-36
2022/10/19 09:45:24;;;;;;;6.00;1.00;;;;;;;12.12;93.62;100177.21;100790;1339;25711;-36
2022/10/19 09:47:49;;;;;;;3.80;0.90;;;;;;;12.09;92.54;100180.66;100737;1338;22744;-37
2022/10/19 09:50:19;;;;;;;0.70;0.50;;;;;;;12.16;92.94;100185.02;100702;1331;23099;-36
2022/10/19 09:52:50;;;;;;;2.70;0.80;;;;;;;12.34;91.37;100188.64;100757;1331;22860;-34
2022/10/19 09:55:25;;;;;;;6.80;0.60;;;;;;;12.27;92.65;100191.13;100737;1339;22523;-37
2022/10/19 09:58:00;;;;;;;1.20;0.50;;;;;;;12.45;92.97;100187.55;100822;1339;24865;-33
2022/10/19 10:00:31;;;;;;;3.80;0.90;;;;;;;12.46;90.64;100187.40;100592;1339;24301;-35
2022/10/19 10:02:57;;;;;;;1.90;0.70;;;;;;;12.41;92.30;100198.28;100868;1339;24854;-33
2022/10/19 10:05:29;;;;;;;1.80;0.60;;;;;;;12.38;91.29;100200.16;100712;1339;22711;-33
2022/10/19 10:07:54;;;;;;;4.20;1.00;;;;;;;12.24;91.39;100193.55;100754;1331;22579;-32
2022/10/19 10:10:22;;;;;;;3.50;1.10;;;;;;;12.13;92.56;100192.30;100763;1339;23317;-33
2022/10/19 10:12:50;;;;;;;2.50;0.60;;;;;;;12.07;93.00;100196.81;100790;1339;22505;-32
2022/10/19 10:15:20;;;;;;;3.30;0.90;;;;;;;11.98;92.88;100198.15;100761;1339;22751;-33
2022/10/19 10:17:46;;;;;;;1.50;0.80;;;;;;;11.81;93.91;100198.91;100756;1339;22510;-32
2022/10/19 10:20:18;;;;;;;2.90;1.10;;;;;;;11.88;94.05;100194.48;100726;1339;25265;-34
2022/10/19 10:22:50;;;;;;;3.10;0.80;;;;;;;11.90;91.75;100188.64;100855;1339;25343;-36
2022/10/19 10:25:17;;;;;;;0.50;0.50;;;;;;;11.92;92.04;100192.92;100839;1339;22745;-33
2022/10/19 10:27:52;;;;;;;2.10;1.00;;;;;;;12.01;92.03;100199.21;100762;1338;22912;-34
2022/10/19 10:30:18;;;;;;;1.60;0.80;;;;;;;12.03;92.35;100202.30;100739;1339;24383;-33
2022/10/19 10:32:48;;;;;;;1.40;0.70;;;;;;;12.16;92.81;100197.49;100903;1339;22776;-33
2022/10/19 10:35:17;;;;;;;1.40;0.60;;;;;;;12.17;92.85;100198.61;100797;1339;24298;-33
2022/10/19 10:37:44;;;;;;;6.40;0.60;;;;;;;12.16;92.65;100195.90;100784;1330;22874;-33
2022/10/19 10:40:16;;;;;;;0.60;0.50;;;;;;;12.31;90.16;100198.91;100685;1339;25517;-33
2022/10/19 10:42:43;;;;;;;0.40;0.30;;;;;;;12.23;90.47;100198.44;100827;1339;24263;-36
2022/10/19 10:45:16;;;;;;;6.70;0.60;;;;;;;12.26;90.66;100202.23;100736;1331;22857;-37
2022/10/19 10:47:47;;;;;;;0.60;0.30;;;;;;;12.21;90.01;100198.06;100824;1339;22528;-37
2022/10/19 10:50:18;;;;;;;0.60;0.30;;;;;;;12.20;90.62;100200.49;100806;1331;22753;-36
2022/10/19 10:52:51;;;;;;;1.30;0.70;;;;;;;12.22;89.98;100198.55;100709;1339;23098;-39
2022/10/19 10:55:17;;;;;;;0.50;0.30;;;;;;;12.24;89.42;100198.58;100893;1339;25531;-33
2022/10/19 10:57:45;;;;;;;0.30;0.30;;;;;;;12.17;87.57;100196.84;100726;1339;24292;-32
2022/10/19 11:00:14;;;;;;;1.20;0.50;;;;;;;12.31;87.32;100195.73;100786;1331;24341;-33
2022/10/19 11:02:40;;;;;;;0.70;0.30;;;;;;;12.31;87.07;100186.20;100756;1333;23011;-36
2022/10/19 11:05:11;;;;;;;1.60;0.40;;;;;;;12.13;87.38;100183.45;100714;1339;23056;-33